Time;durP1;ratioP1;P1;durP2;ratioP2;P2;SDS_P1;SDS_P2;PMS_P1;PMS_P2;Temp;Humidity;BMP_temperature;BMP_pressure;BME280_temperature;BME280_humidity;BME280_pressure;Samples;Min_cycle;Max_cycle;Signal;HPM_P1;HPM_P2
2023/08/07 00:01:02;;;;;;;;;;;;;;;20.11;51.15;100072.75;5026294;28;20407;-83
2023/08/07 00:03:27;;;;;;;;;;;;;;;20.10;51.16;100061.03;5024342;28;20566;-84
2023/08/07 00:05:53;;;;;;;;;;;;;;;20.10;50.95;100054.81;5027676;28;19932;-84
2023/08/07 00:08:18;;;;;;;;;;;;;;;20.10;51.01;100066.47;5025917;28;19993;-84
2023/08/07 00:10:43;;;;;;;;;;;;;;;20.11;50.92;100061.84;5024952;28;19957;-84
2023/08/07 00:13:09;;;;;;;;;;;;;;;20.14;50.92;100074.78;5023679;28;19960;-84
2023/08/07 00:15:34;;;;;;;;;;;;;;;20.16;50.95;100073.34;5024742;28;19944;-83
2023/08/07 00:18:00;;;;;;;;;;;;;;;20.10;51.19;100071.91;5027322;28;19932;-84
2023/08/07 00:20:25;;;;;;;;;;;;;;;20.12;50.93;100082.50;5024038;28;20297;-84
2023/08/07 00:22:51;;;;;;;;;;;;;;;20.11;50.66;100068.09;5023472;28;19921;-85
2023/08/07 00:25:16;;;;;;;;;;;;;;;20.04;50.99;100058.84;5022484;28;19918;-84
2023/08/07 00:27:41;;;;;;;;;;;;;;;20.07;50.81;100064.41;5024978;28;19971;-83
2023/08/07 00:30:07;;;;;;;;;;;;;;;20.05;51.05;100074.03;5019619;28;19940;-83
2023/08/07 00:32:32;;;;;;;;;;;;;;;20.02;51.13;100064.59;5023043;28;19970;-83
2023/08/07 00:34:57;;;;;;;;;;;;;;;20.07;51.00;100061.69;5020170;28;19961;-83
2023/08/07 00:37:22;;;;;;;;;;;;;;;20.03;51.36;100065.41;5018992;28;19929;-83
2023/08/07 00:39:48;;;;;;;;;;;;;;;20.00;50.75;100061.44;5020769;28;20047;-85
2023/08/07 00:42:13;;;;;;;;;;;;;;;20.01;51.03;100073.91;5021443;28;19921;-86
2023/08/07 00:44:38;;;;;;;;;;;;;;;19.98;51.14;100057.44;5019442;28;19921;-88
2023/08/07 00:47:04;;;;;;;;;;;;;;;19.97;51.02;100062.09;5028426;28;20384;-86
2023/08/07 00:49:29;;;;;;;;;;;;;;;19.98;50.84;100054.72;5024245;28;20351;-87
2023/08/07 00:51:55;;;;;;;;;;;;;;;20.01;50.86;100067.66;5021853;28;19926;-87
2023/08/07 00:54:20;;;;;;;;;;;;;;;20.01;51.03;100073.09;5025308;28;19925;-87
2023/08/07 00:56:46;;;;;;;;;;;;;;;20.06;50.68;100072.91;5020131;28;20063;-87
2023/08/07 00:59:12;;;;;;;;;;;;;;;20.07;50.36;100064.41;5021567;28;19925;-85
2023/08/07 01:01:38;;;;;;;;;;;;;;;20.11;50.48;100075.47;5016902;28;20419;-86
2023/08/07 01:04:03;;;;;;;;;;;;;;;20.10;50.57;100062.97;5022473;28;19917;-84
2023/08/07 01:06:28;;;;;;;;;;;;;;;20.04;50.38;100062.34;5022282;28;19927;-86
2023/08/07 01:08:54;;;;;;;;;;;;;;;20.01;50.47;100073.91;5026630;28;19976;-86
2023/08/07 01:11:39;;;;;;;;;;;;;;;19.99;50.96;100078.88;5022754;28;19991;-86
2023/08/07 01:14:07;;;;;;;;;;;;;;;19.98;50.66;100065.59;5016986;28;19917;-85
2023/08/07 01:16:41;;;;;;;;;;;;;;;20.01;50.75;100068.47;5026261;28;19925;-86
2023/08/07 01:19:08;;;;;;;;;;;;;;;19.95;51.01;100058.91;5030416;28;19923;-84
2023/08/07 01:21:34;;;;;;;;;;;;;;;19.92;51.23;100073.13;5023214;28;19975;-84
2023/08/07 01:23:59;;;;;;;;;;;;;;;19.98;50.97;100057.44;5030423;28;19947;-87
2023/08/07 01:26:25;;;;;;;;;;;;;;;19.98;50.99;100060.97;5028015;28;19921;-87
2023/08/07 01:28:57;;;;;;;;;;;;;;;19.98;50.88;100052.81;5027566;28;19917;-88
2023/08/07 01:31:24;;;;;;;;;;;;;;;19.99;51.21;100048.94;5029040;28;20539;-88
2023/08/07 01:33:53;;;;;;;;;;;;;;;20.00;51.12;100047.81;5014682;28;20012;-87
2023/08/07 01:36:20;;;;;;;;;;;;;;;20.05;51.07;100058.50;5025255;28;20385;-88
2023/08/07 01:38:45;;;;;;;;;;;;;;;20.03;51.77;100055.31;5009701;28;19925;-88
2023/08/07 01:41:11;;;;;;;;;;;;;;;20.05;51.25;100053.06;5029679;28;19926;-88
2023/08/07 01:43:36;;;;;;;;;;;;;;;20.02;51.93;100052.94;5009094;28;19920;-87
2023/08/07 01:46:02;;;;;;;;;;;;;;;20.07;51.62;100058.97;5007960;28;19925;-87
2023/08/07 01:48:28;;;;;;;;;;;;;;;20.12;51.33;100058.81;5027189;28;19929;-88
2023/08/07 01:50:54;;;;;;;;;;;;;;;20.14;51.60;100053.84;5027535;28;19928;-86
2023/08/07 01:53:19;;;;;;;;;;;;;;;20.16;51.35;100046.16;5022444;28;20411;-86
2023/08/07 01:55:44;;;;;;;;;;;;;;;20.19;51.16;100053.63;5029767;28;19921;-87
2023/08/07 01:58:10;;;;;;;;;;;;;;;20.13;51.40;100060.41;5033838;28;20304;-87
2023/08/07 02:00:35;;;;;;;;;;;;;;;20.16;51.38;100062.47;5033858;28;20435;-88
2023/08/07 02:03:00;;;;;;;;;;;;;;;20.17;51.15;100060.53;5008726;28;19960;-88
2023/08/07 02:05:26;;;;;;;;;;;;;;;20.14;51.47;100062.00;5027752;28;19956;-88
2023/08/07 02:07:51;;;;;;;;;;;;;;;20.15;51.61;100065.50;5031738;28;19957;-87
2023/08/07 02:10:16;;;;;;;;;;;;;;;20.20;51.27;100078.91;5028897;28;19960;-90
2023/08/07 02:12:41;;;;;;;;;;;;;;;20.23;51.32;100073.59;5010300;28;19956;-88
2023/08/07 02:15:07;;;;;;;;;;;;;;;20.27;51.46;100081.09;5023139;28;19925;-84
2023/08/07 02:17:33;;;;;;;;;;;;;;;20.31;51.33;100079.34;5021624;28;20397;-84
2023/08/07 02:19:58;;;;;;;;;;;;;;;20.34;51.39;100076.75;5027047;28;19917;-85
2023/08/07 02:22:24;;;;;;;;;;;;;;;20.36;51.03;100090.03;5021341;28;19941;-86
2023/08/07 02:24:49;;;;;;;;;;;;;;;20.36;51.49;100081.88;5025359;28;19917;-86
2023/08/07 02:27:14;;;;;;;;;;;;;;;20.43;51.10;100084.88;5026610;28;20658;-86
2023/08/07 02:29:39;;;;;;;;;;;;;;;20.41;51.26;100089.88;5027550;28;20417;-87
2023/08/07 02:32:05;;;;;;;;;;;;;;;20.38;51.59;100085.06;5009818;28;19966;-87
2023/08/07 02:34:31;;;;;;;;;;;;;;;20.41;51.45;100098.03;5028452;28;19968;-86
2023/08/07 02:36:56;;;;;;;;;;;;;;;20.39;51.48;100082.00;5024397;28;19976;-84
2023/08/07 02:39:22;;;;;;;;;;;;;;;20.42;51.59;100083.28;5024355;28;20475;-84
2023/08/07 02:41:47;;;;;;;;;;;;;;;20.48;51.47;100082.78;5021085;28;20388;-84
2023/08/07 02:44:12;;;;;;;;;;;;;;;20.51;51.46;100078.59;5020828;28;19968;-86
2023/08/07 02:46:38;;;;;;;;;;;;;;;20.50;51.44;100077.00;5020997;28;20451;-84
2023/08/07 02:49:04;;;;;;;;;;;;;;;20.48;51.32;100082.00;5024417;28;20373;-86
2023/08/07 02:51:29;;;;;;;;;;;;;;;20.45;51.50;100067.09;5023329;28;19991;-85
2023/08/07 02:53:55;;;;;;;;;;;;;;;20.47;51.76;100072.25;5022492;28;19929;-84
2023/08/07 02:56:20;;;;;;;;;;;;;;;20.50;51.41;100058.75;5021582;28;20562;-84
2023/08/07 02:58:45;;;;;;;;;;;;;;;20.49;51.80;100064.53;5005053;28;19928;-84
2023/08/07 03:01:11;;;;;;;;;;;;;;;20.49;51.77;100070.78;5022748;28;19925;-84
2023/08/07 03:03:37;;;;;;;;;;;;;;;20.50;51.74;100064.22;5026199;28;19921;-84
2023/08/07 03:06:03;;;;;;;;;;;;;;;20.44;51.87;100051.09;5017624;28;19925;-84
2023/08/07 03:08:28;;;;;;;;;;;;;;;20.43;51.73;100057.69;5024397;28;19921;-84
2023/08/07 03:10:55;;;;;;;;;;;;;;;20.43;51.92;100046.78;5026302;28;19920;-85
2023/08/07 03:13:21;;;;;;;;;;;;;;;20.46;51.89;100052.38;5026411;28;19917;-84
2023/08/07 03:15:49;;;;;;;;;;;;;;;20.50;51.74;100047.06;5020321;28;19928;-84
2023/08/07 03:18:14;;;;;;;;;;;;;;;20.51;51.82;100040.50;5027375;28;20000;-84
2023/08/07 03:20:39;;;;;;;;;;;;;;;20.50;51.76;100037.00;5028617;28;20349;-83
2023/08/07 03:23:04;;;;;;;;;;;;;;;20.54;51.89;100047.22;5026324;28;19956;-84
2023/08/07 03:25:30;;;;;;;;;;;;;;;20.59;51.55;100044.28;5022314;28;19917;-84
2023/08/07 03:27:55;;;;;;;;;;;;;;;20.58;51.69;100040.75;5016972;28;19921;-85
2023/08/07 03:30:20;;;;;;;;;;;;;;;20.59;51.58;100045.06;5000940;28;19924;-85
2023/08/07 03:32:46;;;;;;;;;;;;;;;20.60;51.55;100040.44;5025549;28;19927;-84
2023/08/07 03:35:11;;;;;;;;;;;;;;;20.57;51.45;100035.66;5022419;28;19917;-84
2023/08/07 03:37:36;;;;;;;;;;;;;;;20.56;51.50;100032.13;5019676;28;20311;-84
2023/08/07 03:40:02;;;;;;;;;;;;;;;20.59;51.51;100036.13;5020186;28;19917;-85
2023/08/07 03:42:27;;;;;;;;;;;;;;;20.57;51.63;100033.72;5025726;28;19975;-84
2023/08/07 03:44:52;;;;;;;;;;;;;;;20.58;51.67;100029.09;5024120;28;19986;-84
2023/08/07 03:47:18;;;;;;;;;;;;;;;20.65;51.42;100032.88;5019487;28;19928;-83
2023/08/07 03:49:43;;;;;;;;;;;;;;;20.67;51.35;100033.34;5019522;28;19932;-84
2023/08/07 03:52:08;;;;;;;;;;;;;;;20.65;51.15;100030.16;5020228;28;20262;-85
2023/08/07 03:54:33;;;;;;;;;;;;;;;20.66;51.41;100023.59;5023103;28;20381;-86
2023/08/07 03:56:59;;;;;;;;;;;;;;;20.69;51.34;100019.41;5021798;28;19932;-86
2023/08/07 03:59:24;;;;;;;;;;;;;;;20.76;51.01;100022.38;5025131;28;19965;-85
2023/08/07 04:01:49;;;;;;;;;;;;;;;20.70;51.23;100024.50;5008938;28;19923;-85
2023/08/07 04:04:15;;;;;;;;;;;;;;;20.73;51.33;100029.28;5024627;28;19917;-85
2023/08/07 04:06:40;;;;;;;;;;;;;;;20.81;51.16;100036.56;4999916;28;20482;-86
2023/08/07 04:09:05;;;;;;;;;;;;;;;20.84;51.25;100031.59;5020601;28;19924;-85
2023/08/07 04:11:33;;;;;;;;;;;;;;;20.88;51.06;100041.50;5021814;28;19932;-86
2023/08/07 04:13:58;;;;;;;;;;;;;;;20.86;51.07;100042.97;5020292;28;19928;-85
2023/08/07 04:16:24;;;;;;;;;;;;;;;20.81;51.15;100042.00;5004704;28;19920;-86
2023/08/07 04:18:50;;;;;;;;;;;;;;;20.78;51.32;100042.69;5026861;28;19921;-85
2023/08/07 04:21:16;;;;;;;;;;;;;;;20.84;51.10;100040.56;5026772;28;19960;-86
2023/08/07 04:23:41;;;;;;;;;;;;;;;20.84;51.30;100045.22;5024271;28;19952;-85
2023/08/07 04:26:06;;;;;;;;;;;;;;;20.85;51.21;100047.59;5022788;28;19917;-85
2023/08/07 04:28:31;;;;;;;;;;;;;;;20.88;50.98;100040.69;5005113;28;20321;-84
2023/08/07 04:30:57;;;;;;;;;;;;;;;20.85;51.05;100047.59;5023136;28;19925;-85
2023/08/07 04:33:22;;;;;;;;;;;;;;;20.85;51.10;100057.69;5022782;28;19928;-84
2023/08/07 04:35:48;;;;;;;;;;;;;;;20.79;51.55;100057.88;5028151;28;19917;-84
2023/08/07 04:38:16;;;;;;;;;;;;;;;20.84;51.67;100061.56;5026010;28;20020;-86
2023/08/07 04:40:45;;;;;;;;;;;;;;;20.85;51.73;100057.69;5022604;28;19975;-85
2023/08/07 04:43:11;;;;;;;;;;;;;;;20.90;51.34;100060.22;5021639;28;19975;-85
2023/08/07 04:45:38;;;;;;;;;;;;;;;20.87;51.69;100048.06;5027922;28;19917;-84
2023/08/07 04:48:03;;;;;;;;;;;;;;;20.87;51.50;100060.88;5022327;28;19927;-84
2023/08/07 04:50:29;;;;;;;;;;;;;;;20.85;51.60;100069.38;5023278;28;19917;-84
2023/08/07 04:52:54;;;;;;;;;;;;;;;20.82;51.78;100070.03;5022112;28;19979;-84
2023/08/07 04:55:19;;;;;;;;;;;;;;;20.82;51.88;100075.47;5022644;28;19917;-85
2023/08/07 04:57:46;;;;;;;;;;;;;;;20.83;51.92;100076.31;5025309;28;20023;-84
2023/08/07 05:00:11;;;;;;;;;;;;;;;20.83;51.95;100073.56;5029572;28;20404;-85
2023/08/07 05:02:37;;;;;;;;;;;;;;;20.87;52.11;100066.34;5025404;28;19923;-86
2023/08/07 05:05:02;;;;;;;;;;;;;;;20.92;52.27;100061.47;5021996;28;19917;-85
2023/08/07 05:07:27;;;;;;;;;;;;;;;21.00;52.28;100071.47;5019987;28;19921;-85
2023/08/07 05:09:53;;;;;;;;;;;;;;;21.06;52.06;100075.59;5024360;28;19952;-85
2023/08/07 05:12:18;;;;;;;;;;;;;;;21.13;52.12;100080.50;5024450;28;19917;-84
2023/08/07 05:14:44;;;;;;;;;;;;;;;21.19;52.29;100076.47;5021341;28;19959;-84
2023/08/07 05:17:09;;;;;;;;;;;;;;;21.24;52.15;100089.06;5026462;28;20361;-86
2023/08/07 05:19:34;;;;;;;;;;;;;;;21.24;52.04;100089.06;5022819;28;19928;-87
2023/08/07 05:21:59;;;;;;;;;;;;;;;21.25;52.15;100086.03;5024076;28;19928;-87
2023/08/07 05:24:25;;;;;;;;;;;;;;;21.34;52.05;100086.72;5020051;28;19924;-86
2023/08/07 05:26:50;;;;;;;;;;;;;;;21.38;52.19;100087.69;5020241;28;20193;-86
2023/08/07 05:29:15;;;;;;;;;;;;;;;21.40;51.76;100090.06;5025184;28;20043;-85
2023/08/07 05:31:41;;;;;;;;;;;;;;;21.40;52.06;100090.06;5017164;28;19922;-85
2023/08/07 05:34:06;;;;;;;;;;;;;;;21.45;52.08;100086.31;5023880;28;19917;-84
2023/08/07 05:36:32;;;;;;;;;;;;;;;21.50;52.19;100091.53;5021004;28;19917;-85
2023/08/07 05:38:58;;;;;;;;;;;;;;;21.51;52.03;100095.88;5025158;28;19925;-85
2023/08/07 05:41:23;;;;;;;;;;;;;;;21.58;52.19;100094.19;5020770;28;19925;-84
2023/08/07 05:43:48;;;;;;;;;;;;;;;21.65;52.02;100091.69;5021758;28;19918;-84
2023/08/07 05:46:14;;;;;;;;;;;;;;;21.70;51.72;100090.69;5020872;28;19964;-84
2023/08/07 05:48:41;;;;;;;;;;;;;;;21.71;51.82;100089.53;5025229;28;20198;-85
2023/08/07 05:51:07;;;;;;;;;;;;;;;21.74;51.60;100101.72;5023044;28;19917;-85
2023/08/07 05:53:36;;;;;;;;;;;;;;;21.78;51.37;100099.91;5027052;28;20357;-86
2023/08/07 05:56:02;;;;;;;;;;;;;;;21.78;51.36;100110.81;5008238;28;19921;-87
2023/08/07 05:58:27;;;;;;;;;;;;;;;21.78;51.47;100108.09;5026524;28;19984;-87
2023/08/07 06:00:52;;;;;;;;;;;;;;;21.80;51.48;100114.78;5027247;28;20372;-87
2023/08/07 06:03:18;;;;;;;;;;;;;;;21.83;51.23;100107.88;5026734;28;20015;-85
2023/08/07 06:05:44;;;;;;;;;;;;;;;21.82;51.24;100112.53;5026096;28;19917;-84
2023/08/07 06:08:09;;;;;;;;;;;;;;;21.80;51.14;100109.34;5025697;28;20365;-85
2023/08/07 06:10:34;;;;;;;;;;;;;;;21.82;51.11;100109.78;5027740;28;20408;-84
2023/08/07 06:12:59;;;;;;;;;;;;;;;21.80;51.29;100114.00;5019996;28;20011;-83
2023/08/07 06:15:25;;;;;;;;;;;;;;;21.78;51.07;100122.53;5024323;28;20402;-84
2023/08/07 06:17:51;;;;;;;;;;;;;;;21.85;50.85;100117.28;5022393;28;19921;-84
2023/08/07 06:20:17;;;;;;;;;;;;;;;21.95;50.86;100113.34;5027856;28;19917;-84
2023/08/07 06:22:42;;;;;;;;;;;;;;;21.98;50.76;100110.72;5025780;28;19923;-85
2023/08/07 06:25:08;;;;;;;;;;;;;;;22.05;50.64;100102.00;5022566;28;19997;-86
2023/08/07 06:27:33;;;;;;;;;;;;;;;22.10;50.53;100106.47;5022461;28;19917;-84
2023/08/07 06:29:59;;;;;;;;;;;;;;;22.11;50.73;100108.06;5023360;28;19925;-85
2023/08/07 06:32:27;;;;;;;;;;;;;;;22.11;50.60;100113.50;5022787;28;20568;-86
2023/08/07 06:34:53;;;;;;;;;;;;;;;22.03;50.64;100129.59;5024565;28;19917;-86
2023/08/07 06:37:18;;;;;;;;;;;;;;;22.05;50.66;100126.56;5021403;28;19929;-84
2023/08/07 06:39:43;;;;;;;;;;;;;;;22.11;50.48;100135.34;5019807;28;19972;-86
2023/08/07 06:42:09;;;;;;;;;;;;;;;22.12;50.44;100132.25;5002396;28;19921;-85
2023/08/07 06:44:34;;;;;;;;;;;;;;;22.15;50.33;100147.16;5017688;28;20032;-86
2023/08/07 06:46:59;;;;;;;;;;;;;;;22.12;50.28;100132.25;5019271;28;20381;-86
2023/08/07 06:49:25;;;;;;;;;;;;;;;22.10;50.31;100133.75;5025389;28;19934;-86
2023/08/07 06:51:50;;;;;;;;;;;;;;;22.14;50.25;100143.63;5020615;28;19928;-85
2023/08/07 06:54:15;;;;;;;;;;;;;;;22.16;50.05;100143.28;5028451;28;19925;-90
2023/08/07 06:56:42;;;;;;;;;;;;;;;22.13;49.89;100141.25;5013036;28;19921;-86
2023/08/07 06:59:07;;;;;;;;;;;;;;;22.12;49.86;100139.66;5026074;28;19932;-85
2023/08/07 07:01:32;;;;;;;;;;;;;;;22.12;50.17;100132.25;5019918;28;19917;-86
2023/08/07 07:03:58;;;;;;;;;;;;;;;22.16;49.88;100135.09;5026187;28;19956;-84
2023/08/07 07:06:25;;;;;;;;;;;;;;;22.16;49.86;100138.63;5025576;28;20044;-85
2023/08/07 07:08:53;;;;;;;;;;;;;;;22.15;49.76;100145.22;5026327;28;19963;-84
2023/08/07 07:11:19;;;;;;;;;;;;;;;22.18;49.62;100149.97;5024675;28;20287;-84
2023/08/07 07:13:44;;;;;;;;;;;;;;;22.16;49.68;100149.53;4998227;28;20015;-83
2023/08/07 07:16:11;;;;;;;;;;;;;;;22.15;49.80;100150.66;5019675;28;19921;-84
2023/08/07 07:18:36;;;;;;;;;;;;;;;22.22;49.86;100161.00;5024062;28;19921;-84
2023/08/07 07:21:02;;;;;;;;;;;;;;;22.30;49.55;100155.47;5023490;28;20003;-84
2023/08/07 07:23:28;;;;;;;;;;;;;;;22.36;49.43;100168.88;5020356;28;20019;-84
2023/08/07 07:25:53;;;;;;;;;;;;;;;22.33;49.14;100153.97;5022137;28;19948;-84
2023/08/07 07:28:18;;;;;;;;;;;;;;;22.31;49.26;100164.44;5023961;28;19948;-85
2023/08/07 07:30:44;;;;;;;;;;;;;;;22.26;49.37;100170.94;5021834;28;19999;-84
2023/08/07 07:33:09;;;;;;;;;;;;;;;22.24;49.37;100161.47;5006703;28;20361;-84
2023/08/07 07:35:38;;;;;;;;;;;;;;;22.21;49.34;100173.06;5024076;28;19917;-84
2023/08/07 07:38:04;;;;;;;;;;;;;;;22.21;49.20;100167.59;5018797;28;19929;-83
2023/08/07 07:40:29;;;;;;;;;;;;;;;22.14;49.25;100167.38;5028761;28;19979;-84
2023/08/07 07:42:54;;;;;;;;;;;;;;;22.14;49.51;100176.38;5019489;28;19924;-84
2023/08/07 07:45:20;;;;;;;;;;;;;;;22.19;49.20;100169.88;5020220;28;19920;-84
2023/08/07 07:47:45;;;;;;;;;;;;;;;22.20;49.27;100171.47;5022318;28;19971;-85
2023/08/07 07:50:12;;;;;;;;;;;;;;;22.26;49.29;100183.75;5024016;28;20460;-85
2023/08/07 07:52:38;;;;;;;;;;;;;;;22.28;49.22;100186.97;5017724;28;19917;-85
2023/08/07 07:55:03;;;;;;;;;;;;;;;22.28;49.18;100184.22;5024051;28;19925;-84
2023/08/07 07:57:28;;;;;;;;;;;;;;;22.27;49.08;100197.06;5019648;28;19921;-85
2023/08/07 07:59:54;;;;;;;;;;;;;;;22.27;49.20;100191.63;5024673;28;19921;-83
2023/08/07 08:02:19;;;;;;;;;;;;;;;22.28;49.14;100200.59;5025421;28;20563;-83
2023/08/07 08:04:44;;;;;;;;;;;;;;;22.23;49.45;100192.63;5024219;28;19921;-83
2023/08/07 08:07:10;;;;;;;;;;;;;;;22.29;49.48;100213.09;5019223;28;19928;-83
2023/08/07 08:09:35;;;;;;;;;;;;;;;22.40;48.99;100208.78;5016390;28;19939;-86
2023/08/07 08:12:00;;;;;;;;;;;;;;;22.39;48.67;100204.47;5020310;28;19921;-84
2023/08/07 08:14:25;;;;;;;;;;;;;;;22.41;48.83;100215.03;5022483;28;20428;-84
2023/08/07 08:16:51;;;;;;;;;;;;;;;22.43;49.02;100223.69;5011042;28;19960;-85
2023/08/07 08:19:16;;;;;;;;;;;;;;;22.43;48.82;100229.13;5022568;28;19924;-84
2023/08/07 08:21:42;;;;;;;;;;;;;;;22.46;48.88;100229.28;5020281;28;19923;-84
2023/08/07 08:24:07;;;;;;;;;;;;;;;22.51;48.67;100230.97;5026813;28;20012;-84
2023/08/07 08:26:33;;;;;;;;;;;;;;;22.52;48.34;100238.03;5025889;28;20380;-83
2023/08/07 08:28:58;;;;;;;;;;;;;;;22.45;48.80;100240.53;5018300;28;20416;-84
2023/08/07 08:31:24;;;;;;;;;;;;;;;22.51;48.35;100234.50;5022189;28;19982;-85
2023/08/07 08:33:49;;;;;;;;;;;;;;;22.53;48.42;100229.50;5019061;28;19968;-83
2023/08/07 08:36:14;;;;;;;;;;;;;;;22.62;48.34;100243.03;5021248;28;19963;-85
2023/08/07 08:38:40;;;;;;;;;;;;;;;22.71;47.90;100256.59;5018050;28;19925;-85
2023/08/07 08:41:08;;;;;;;;;;;;;;;22.71;47.84;100240.19;5015940;28;19918;-83
2023/08/07 08:43:35;;;;;;;;;;;;;;;22.75;47.76;100241.09;5018258;28;19968;-84
2023/08/07 08:46:01;;;;;;;;;;;;;;;22.69;47.99;100231.56;5018034;28;19979;-83
2023/08/07 08:48:28;;;;;;;;;;;;;;;22.75;48.19;100232.91;5003463;28;19921;-83
2023/08/07 08:50:54;;;;;;;;;;;;;;;22.83;48.12;100243.75;5017617;28;19918;-83
2023/08/07 08:53:20;;;;;;;;;;;;;;;22.94;47.48;100246.81;5015610;28;20488;-83
2023/08/07 08:55:47;;;;;;;;;;;;;;;22.90;47.36;100249.44;5022021;28;19940;-84
2023/08/07 08:58:15;;;;;;;;;;;;;;;22.90;47.59;100243.19;5017328;28;19936;-83
2023/08/07 09:00:41;;;;;;;;;;;;;;;22.97;47.61;100240.66;5016971;28;19928;-83
2023/08/07 09:03:06;;;;;;;;;;;;;;;22.99;47.35;100246.59;5020483;28;19920;-84
2023/08/07 09:05:32;;;;;;;;;;;;;;;23.04;47.11;100251.03;5017531;28;20351;-85
2023/08/07 09:07:58;;;;;;;;;;;;;;;23.17;47.25;100245.19;5017592;28;20385;-84
2023/08/07 09:10:24;;;;;;;;;;;;;;;23.31;46.92;100244.00;5021359;28;19925;-83
2023/08/07 09:12:54;;;;;;;;;;;;;;;23.42;46.83;100247.88;4998744;28;19933;-84
2023/08/07 09:15:20;;;;;;;;;;;;;;;23.53;46.83;100243.50;5021319;28;20389;-84
2023/08/07 09:17:46;;;;;;;;;;;;;;;23.68;46.60;100258.41;5001474;28;19968;-84
2023/08/07 09:20:13;;;;;;;;;;;;;;;23.79;45.95;100245.81;5023722;28;19964;-84
2023/08/07 09:22:39;;;;;;;;;;;;;;;23.79;45.79;100240.34;5006367;28;19935;-84
2023/08/07 09:25:05;;;;;;;;;;;;;;;23.79;45.80;100224.72;5006661;28;19917;-85
2023/08/07 09:27:30;;;;;;;;;;;;;;;23.83;45.50;100234.97;5026101;28;19921;-84
2023/08/07 09:29:56;;;;;;;;;;;;;;;23.88;45.46;100235.53;5027938;28;20297;-86
2023/08/07 09:32:23;;;;;;;;;;;;;;;23.89;45.67;100241.81;5027060;28;19960;-86
2023/08/07 09:34:49;;;;;;;;;;;;;;;24.00;45.78;100240.91;5026070;28;19964;-84
2023/08/07 09:37:14;;;;;;;;;;;;;;;24.17;45.36;100237.06;5013232;28;20340;-83
2023/08/07 09:39:40;;;;;;;;;;;;;;;24.32;45.26;100241.78;5029365;28;19917;-86
2023/08/07 09:42:15;;;;;;;;;;;;;;;24.46;45.04;100235.88;5008395;28;19917;-83
2023/08/07 09:44:41;;;;;;;;;;;;;;;24.61;44.91;100239.78;5025044;28;19917;-83
2023/08/07 09:47:16;;;;;;;;;;;;;;;24.65;44.42;100255.13;5009684;28;19975;-85
2023/08/07 09:49:43;;;;;;;;;;;;;;;24.73;44.66;100255.28;5025701;28;19921;-84
2023/08/07 09:52:09;;;;;;;;;;;;;;;24.77;44.22;100253.44;5026738;28;19975;-84
2023/08/07 09:54:34;;;;;;;;;;;;;;;24.82;43.90;100258.66;5024861;28;20381;-84
2023/08/07 09:57:00;;;;;;;;;;;;;;;24.88;43.89;100252.53;5008228;28;19921;-84
2023/08/07 09:59:26;;;;;;;;;;;;;;;24.93;44.21;100244.03;5024562;28;19913;-84
2023/08/07 10:01:52;;;;;;;;;;;;;;;25.01;43.66;100245.03;5026039;28;20493;-83
2023/08/07 10:04:18;;;;;;;;;;;;;;;24.99;43.60;100250.06;5025205;28;20459;-84
2023/08/07 10:06:43;;;;;;;;;;;;;;;25.04;44.08;100236.09;5023215;28;19921;-84
2023/08/07 10:09:09;;;;;;;;;;;;;;;25.09;43.91;100240.50;5026203;28;19944;-87
2023/08/07 10:11:34;;;;;;;;;;;;;;;25.12;43.55;100234.28;5025919;28;19979;-84
2023/08/07 10:14:00;;;;;;;;;;;;;;;25.16;43.24;100237.94;5021110;28;19921;-83
2023/08/07 10:16:26;;;;;;;;;;;;;;;25.20;43.39;100249.75;5024705;28;20014;-83
2023/08/07 10:18:52;;;;;;;;;;;;;;;25.31;42.08;100248.03;5022328;28;19933;-84
2023/08/07 10:21:17;;;;;;;;;;;;;;;25.32;42.57;100246.09;5022673;28;20324;-84
2023/08/07 10:23:43;;;;;;;;;;;;;;;25.36;42.85;100246.97;5022475;28;20554;-86
2023/08/07 10:26:09;;;;;;;;;;;;;;;25.40;42.74;100251.38;5025414;28;19959;-84
2023/08/07 10:28:40;;;;;;;;;;;;;;;25.48;42.57;100242.13;5016950;28;19921;-84
2023/08/07 10:31:08;;;;;;;;;;;;;;;25.44;41.98;100240.47;5018563;28;19921;-84
2023/08/07 10:33:34;;;;;;;;;;;;;;;25.48;41.96;100252.28;5015740;28;19917;-87
2023/08/07 10:36:04;;;;;;;;;;;;;;;25.51;42.02;100248.84;5024710;28;20333;-84
2023/08/07 10:38:29;;;;;;;;;;;;;;;25.51;42.03;100241.44;5023762;28;20416;-84
2023/08/07 10:40:57;;;;;;;;;;;;;;;25.55;41.30;100242.28;5019782;28;19971;-83
2023/08/07 10:43:23;;;;;;;;;;;;;;;25.57;41.55;100250.94;5018298;28;19983;-84
2023/08/07 10:45:49;;;;;;;;;;;;;;;25.70;41.15;100242.59;5017115;28;20381;-84
2023/08/07 10:48:18;;;;;;;;;;;;;;;25.74;41.43;100251.69;5001167;28;19991;-83
2023/08/07 10:50:51;;;;;;;;;;;;;;;25.81;41.24;100232.63;5021347;28;19995;-83
2023/08/07 10:53:44;;;;;;;;;;;;;;;25.95;40.48;100238.38;5021482;28;20279;-83
2023/08/07 10:56:10;;;;;;;;;;;;;;;25.91;40.08;100237.53;5003845;28;20343;-86
2023/08/07 10:58:37;;;;;;;;;;;;;;;25.91;40.48;100240.25;5018289;28;19929;-84
2023/08/07 11:01:20;;;;;;;;;;;;;;;25.89;40.30;100243.38;5018782;28;19968;-84
2023/08/07 11:03:49;;;;;;;;;;;;;;;25.88;40.43;100238.25;5018111;28;19922;-85
2023/08/07 11:06:14;;;;;;;;;;;;;;;26.00;40.88;100224.34;5026879;28;19927;-85
2023/08/07 11:08:40;;;;;;;;;;;;;;;26.20;39.85;100233.31;5024205;28;20360;-82
2023/08/07 11:11:06;;;;;;;;;;;;;;;26.27;39.73;100232.66;5021651;28;19924;-87
2023/08/07 11:13:32;;;;;;;;;;;;;;;26.28;39.94;100234.25;5017849;28;19928;-84
2023/08/07 11:15:59;;;;;;;;;;;;;;;26.29;39.79;100220.16;5015816;28;19921;-85
2023/08/07 11:18:24;;;;;;;;;;;;;;;26.40;39.21;100231.38;5024066;28;19929;-84
2023/08/07 11:20:50;;;;;;;;;;;;;;;26.33;37.83;100233.94;5020572;28;19928;-83
2023/08/07 11:23:15;;;;;;;;;;;;;;;26.35;39.22;100229.69;5024735;28;19917;-83
2023/08/07 11:25:41;;;;;;;;;;;;;;;26.45;38.49;100240.06;5023715;28;19917;-85
2023/08/07 11:28:08;;;;;;;;;;;;;;;26.51;38.22;100221.31;5021778;28;20003;-84
2023/08/07 11:30:34;;;;;;;;;;;;;;;26.67;38.49;100237.66;5025467;28;20389;-83
2023/08/07 11:32:59;;;;;;;;;;;;;;;26.77;37.31;100228.81;5014399;28;19917;-85
2023/08/07 11:35:25;;;;;;;;;;;;;;;26.81;36.97;100229.66;5026511;28;19925;-85
2023/08/07 11:37:50;;;;;;;;;;;;;;;26.98;37.13;100236.56;5017161;28;19944;-84
2023/08/07 11:40:16;;;;;;;;;;;;;;;27.08;37.08;100231.22;5015745;28;20008;-86
2023/08/07 11:42:41;;;;;;;;;;;;;;;27.15;36.84;100238.81;5022079;28;20016;-84
2023/08/07 11:45:07;;;;;;;;;;;;;;;27.20;36.37;100224.72;5020509;28;19924;-87
2023/08/07 11:47:32;;;;;;;;;;;;;;;27.23;36.70;100232.22;5017756;28;20011;-83
2023/08/07 11:49:58;;;;;;;;;;;;;;;27.30;36.84;100240.59;5023626;28;19975;-84
2023/08/07 11:52:24;;;;;;;;;;;;;;;27.33;36.24;100228.84;5018636;28;19921;-83
2023/08/07 11:54:50;;;;;;;;;;;;;;;27.35;36.55;100221.00;5020404;28;19967;-83
2023/08/07 11:57:20;;;;;;;;;;;;;;;27.39;36.22;100226.53;5022019;28;20571;-86
2023/08/07 11:59:51;;;;;;;;;;;;;;;27.42;36.32;100225.00;5017206;28;20401;-85
2023/08/07 12:02:16;;;;;;;;;;;;;;;27.53;36.29;100228.66;5021384;28;20625;-86
2023/08/07 12:04:42;;;;;;;;;;;;;;;27.52;36.42;100236.13;5033590;28;19925;-87
2023/08/07 12:07:10;;;;;;;;;;;;;;;27.52;36.04;100233.38;5026591;28;19917;-84
2023/08/07 12:09:36;;;;;;;;;;;;;;;27.59;35.92;100235.41;5019430;28;19960;-83
2023/08/07 12:12:02;;;;;;;;;;;;;;;27.55;35.22;100240.09;5020935;28;19960;-84
2023/08/07 12:14:28;;;;;;;;;;;;;;;27.52;35.47;100252.66;5018148;28;19925;-84
2023/08/07 12:16:54;;;;;;;;;;;;;;;27.51;34.42;100275.03;5020276;28;19959;-83
2023/08/07 12:19:20;;;;;;;;;;;;;;;27.43;33.41;100245.84;5023168;28;19917;-84
2023/08/07 12:21:45;;;;;;;;;;;;;;;27.49;34.40;100247.09;5019340;28;19924;-85
2023/08/07 12:24:12;;;;;;;;;;;;;;;27.55;33.40;100245.59;5022374;28;19925;-85
2023/08/07 12:26:37;;;;;;;;;;;;;;;27.65;33.79;100239.47;5017693;28;20367;-87
2023/08/07 12:29:03;;;;;;;;;;;;;;;27.74;33.28;100231.69;5004748;28;19925;-85